Time;durP1;ratioP1;P1;durP2;ratioP2;P2;SDS_P1;SDS_P2;PMS_P1;PMS_P2;Temp;Humidity;BMP_temperature;BMP_pressure;BME280_temperature;BME280_humidity;BME280_pressure;Samples;Min_cycle;Max_cycle;Signal;HPM_P1;HPM_P2
2022/04/29 00:00:16;;;;;;;3.10;2.70;;;;;;;12.83;49.19;98209.03;6123255;23;20226;-77
2022/04/29 00:02:43;;;;;;;5.20;2.88;;;;;;;12.86;48.47;98207.78;6127097;23;20167;-78
2022/04/29 00:05:09;;;;;;;4.35;2.97;;;;;;;12.85;49.44;98211.41;6098532;23;20136;-78
2022/04/29 00:07:36;;;;;;;4.63;2.60;;;;;;;12.73;49.13;98217.47;6110556;23;20266;-78
2022/04/29 00:10:02;;;;;;;2.72;2.53;;;;;;;12.75;49.34;98209.41;6097874;23;20239;-78
2022/04/29 00:12:28;;;;;;;3.40;2.60;;;;;;;12.75;49.95;98201.56;6100521;23;20621;-78
2022/04/29 00:14:55;;;;;;;4.80;3.40;;;;;;;12.71;50.79;98200.44;6124378;23;20230;-78
2022/04/29 00:17:21;;;;;;;4.22;3.20;;;;;;;12.70;50.23;98204.88;6123935;23;20246;-78
2022/04/29 00:19:46;;;;;;;5.05;3.42;;;;;;;12.73;49.44;98208.81;6123339;23;20191;-78
2022/04/29 00:22:12;;;;;;;3.97;3.05;;;;;;;12.73;50.13;98209.66;6112542;23;20614;-78
2022/04/29 00:24:37;;;;;;;3.40;2.85;;;;;;;12.72;50.69;98202.03;6097035;23;20626;-78
2022/04/29 00:27:03;;;;;;;3.65;3.25;;;;;;;12.62;49.99;98204.44;6121339;23;20395;-78
2022/04/29 00:29:29;;;;;;;5.05;3.63;;;;;;;12.54;51.07;98200.38;6151049;23;20273;-78
2022/04/29 00:31:55;;;;;;;5.07;3.55;;;;;;;12.52;51.35;98191.97;6103843;23;20479;-78
2022/04/29 00:34:21;;;;;;;5.40;3.83;;;;;;;12.50;51.64;98202.66;6094986;23;20210;-78
2022/04/29 00:36:46;;;;;;;4.68;3.53;;;;;;;12.46;51.97;98203.38;6103121;23;20195;-78
2022/04/29 00:39:12;;;;;;;4.55;3.53;;;;;;;12.44;51.88;98203.59;6127501;23;20187;-78
2022/04/29 00:41:38;;;;;;;4.63;3.47;;;;;;;12.43;51.64;98199.38;6117302;23;20238;-77
2022/04/29 00:44:09;;;;;;;3.75;3.10;;;;;;;12.40;51.27;98193.81;6154076;23;20149;-78
2022/04/29 00:46:37;;;;;;;3.20;2.60;;;;;;;12.36;51.42;98193.50;6094375;23;20593;-78
2022/04/29 00:49:04;;;;;;;3.45;2.85;;;;;;;12.33;50.17;98180.91;6130189;23;20582;-78
2022/04/29 00:51:31;;;;;;;3.25;2.90;;;;;;;12.40;51.18;98189.38;6117750;23;20334;-78
2022/04/29 00:53:57;;;;;;;3.97;3.20;;;;;;;12.36;51.27;98193.50;6102266;23;20188;-78
2022/04/29 00:56:25;;;;;;;3.20;2.90;;;;;;;12.25;50.31;98194.28;6150674;23;20530;-77
2022/04/29 00:59:09;;;;;;;3.63;2.85;;;;;;;12.12;51.00;98188.31;6122479;23;20213;-78
2022/04/29 01:01:36;;;;;;;2.90;2.60;;;;;;;12.28;51.28;98202.47;6097719;23;20179;-78
2022/04/29 01:04:03;;;;;;;3.78;3.05;;;;;;;12.20;51.89;98200.22;6091054;23;20694;-78
2022/04/29 01:06:29;;;;;;;3.47;3.08;;;;;;;12.20;51.58;98200.22;6065461;23;20191;-77
2022/04/29 01:08:54;;;;;;;5.45;4.90;;;;;;;11.83;53.41;98210.09;6098242;23;20116;-77
2022/04/29 01:11:22;;;;;;;6.38;4.90;;;;;;;11.76;53.42;98200.53;6113670;23;20085;-78
2022/04/29 01:13:50;;;;;;;5.57;4.57;;;;;;;11.79;53.43;98192.25;6098311;23;20212;-77
2022/04/29 01:16:21;;;;;;;4.95;3.97;;;;;;;11.66;53.40;98197.69;6098269;23;20230;-77
2022/04/29 01:18:49;;;;;;;5.05;3.53;;;;;;;11.71;52.42;98190.00;6122010;23;20614;-77
2022/04/29 01:21:14;;;;;;;4.30;3.38;;;;;;;11.78;52.61;98180.22;6097091;23;20265;-79
2022/04/29 01:23:41;;;;;;;4.95;3.85;;;;;;;11.77;52.57;98178.66;6088374;23;20106;-79
2022/04/29 01:26:06;;;;;;;3.72;3.13;;;;;;;11.81;52.24;98179.78;6089188;23;20205;-77
2022/04/29 01:28:33;;;;;;;4.60;2.90;;;;;;;11.85;51.85;98168.91;6120539;23;20191;-77
2022/04/29 01:30:59;;;;;;;3.83;3.08;;;;;;;11.99;50.63;98170.25;6096057;23;20646;-78
2022/04/29 01:33:28;;;;;;;4.65;3.05;;;;;;;12.06;50.39;98172.75;6110401;23;20246;-78
2022/04/29 01:35:55;;;;;;;3.50;3.20;;;;;;;12.08;51.95;98173.31;6085257;23;20187;-78
2022/04/29 01:38:21;;;;;;;3.08;2.70;;;;;;;12.10;51.54;98171.28;6117493;23;20137;-78
2022/04/29 01:40:46;;;;;;;4.40;2.88;;;;;;;12.18;50.76;98170.91;6060132;23;20254;-78
2022/04/29 01:43:11;;;;;;;5.40;3.25;;;;;;;12.12;51.53;98172.63;6093598;23;20165;-78
2022/04/29 01:45:37;;;;;;;4.00;3.60;;;;;;;12.06;52.13;98167.53;6085114;23;20259;-78
2022/04/29 01:48:03;;;;;;;4.82;3.42;;;;;;;12.01;51.92;98160.38;6059770;23;20822;-78
2022/04/29 01:50:31;;;;;;;4.45;3.08;;;;;;;11.94;50.64;98160.53;6092769;23;20191;-77
2022/04/29 01:52:56;;;;;;;3.20;2.90;;;;;;;12.09;51.23;98165.25;6118876;23;20103;-77
2022/04/29 01:55:22;;;;;;;3.45;2.67;;;;;;;12.07;51.09;98158.69;6121705;23;20266;-77
2022/04/29 01:57:50;;;;;;;4.53;3.00;;;;;;;11.94;50.52;98165.75;6118316;23;20250;-77
2022/04/29 02:00:17;;;;;;;3.85;3.15;;;;;;;12.07;50.93;98159.47;6119859;23;20276;-78
2022/04/29 02:02:43;;;;;;;3.00;2.70;;;;;;;12.05;51.34;98156.31;6099547;23;20179;-79
2022/04/29 02:05:09;;;;;;;3.20;2.63;;;;;;;12.08;51.39;98152.44;6095350;23;20239;-80
2022/04/29 02:07:34;;;;;;;6.18;3.00;;;;;;;12.14;51.30;98156.75;6119264;23;20210;-77
2022/04/29 02:10:00;;;;;;;4.20;3.80;;;;;;;12.08;51.61;98149.81;6086166;23;20211;-78
2022/04/29 02:12:25;;;;;;;4.32;3.00;;;;;;;12.02;51.64;98146.31;6096669;23;20156;-78
2022/04/29 02:14:51;;;;;;;3.53;2.90;;;;;;;12.03;52.02;98147.09;6120183;23;20234;-77
2022/04/29 02:17:16;;;;;;;4.30;3.20;;;;;;;11.99;51.88;98141.56;6146678;23;20194;-78
2022/04/29 02:19:42;;;;;;;3.20;2.90;;;;;;;11.98;52.05;98142.59;6061513;23;20605;-78
2022/04/29 02:22:08;;;;;;;3.92;2.92;;;;;;;11.97;51.41;98144.38;6119851;23;20148;-78
2022/04/29 02:24:34;;;;;;;3.13;2.88;;;;;;;11.96;51.23;98142.81;6120681;23;20212;-77
2022/04/29 02:27:00;;;;;;;5.22;3.63;;;;;;;11.97;53.14;98138.38;6119965;23;20266;-78
2022/04/29 02:29:32;;;;;;;3.13;2.70;;;;;;;11.93;52.37;98137.25;6061506;23;20243;-78
2022/04/29 02:31:58;;;;;;;3.40;3.10;;;;;;;11.95;51.96;98137.81;6120713;23;20452;-78
2022/04/29 02:34:23;;;;;;;4.85;3.50;;;;;;;11.96;51.02;98131.56;6119629;23;20164;-77
2022/04/29 02:36:49;;;;;;;5.18;3.47;;;;;;;11.98;51.96;98134.75;6119850;23;20259;-78
2022/04/29 02:39:15;;;;;;;4.80;3.17;;;;;;;12.05;51.44;98135.44;6086072;23;20598;-78
2022/04/29 02:41:40;;;;;;;4.28;3.42;;;;;;;12.04;51.70;98133.81;6118066;23;20261;-77
2022/04/29 02:44:06;;;;;;;4.45;3.55;;;;;;;11.98;51.45;98132.16;6113944;23;20152;-77
2022/04/29 02:46:32;;;;;;;3.60;3.30;;;;;;;12.04;52.64;98123.38;6095356;23;20226;-78
2022/04/29 02:48:57;;;;;;;4.07;3.30;;;;;;;12.03;51.66;98129.66;6094380;23;20252;-78
2022/04/29 02:51:23;;;;;;;3.75;3.20;;;;;;;12.02;51.10;98135.88;6088979;23;20666;-78
2022/04/29 02:53:48;;;;;;;4.30;3.35;;;;;;;11.92;51.50;98128.63;6093042;23;20254;-78
2022/04/29 02:56:13;;;;;;;3.67;3.30;;;;;;;11.93;51.37;98137.25;6087587;23;20245;-78
2022/04/29 02:58:39;;;;;;;4.15;3.17;;;;;;;11.97;50.69;98135.78;6094379;23;20172;-78
2022/04/29 03:01:04;;;;;;;4.03;3.60;;;;;;;11.95;50.96;98140.44;6061632;23;20620;-78
2022/04/29 03:03:30;;;;;;;4.57;3.60;;;;;;;11.89;51.23;98133.47;6119879;23;20196;-77
2022/04/29 03:05:55;;;;;;;5.55;3.33;;;;;;;11.89;51.25;98136.09;6146749;23;20724;-77
2022/04/29 03:08:21;;;;;;;3.67;3.20;;;;;;;11.88;51.05;98130.09;6117475;23;20191;-77
2022/04/29 03:10:49;;;;;;;4.15;3.58;;;;;;;11.94;51.25;98138.84;6085254;23;20059;-77
2022/04/29 03:13:15;;;;;;;3.47;3.17;;;;;;;11.98;51.00;98145.22;6110488;23;20192;-78
2022/04/29 03:15:40;;;;;;;3.75;3.42;;;;;;;12.00;51.65;98137.94;6086445;23;20453;-78
2022/04/29 03:18:18;;;;;;;3.83;3.38;;;;;;;11.98;51.87;98132.94;6119418;23;20283;-78
2022/04/29 03:20:45;;;;;;;6.03;3.35;;;;;;;12.02;51.35;98135.88;6098089;23;20180;-78
2022/04/29 03:23:11;;;;;;;4.40;3.28;;;;;;;12.05;51.00;98138.03;6085924;23;20200;-78
2022/04/29 03:25:37;;;;;;;4.03;3.53;;;;;;;12.07;51.46;98132.59;6094831;23;20443;-78
2022/04/29 03:28:06;;;;;;;4.13;3.45;;;;;;;12.02;51.71;98132.47;6119795;23;20124;-78
2022/04/29 03:30:33;;;;;;;4.93;3.60;;;;;;;12.05;51.62;98134.66;6095623;23;20642;-78
2022/04/29 03:32:59;;;;;;;5.45;3.42;;;;;;;12.04;51.77;98120.00;6121061;23;20226;-78
2022/04/29 03:35:25;;;;;;;5.45;4.05;;;;;;;12.01;52.59;98128.28;6060943;23;20137;-78
2022/04/29 03:37:53;;;;;;;5.38;3.85;;;;;;;11.95;51.77;98127.38;6119680;23;20249;-77
2022/04/29 03:40:23;;;;;;;5.38;3.63;;;;;;;11.91;52.06;98115.81;6094206;23;20317;-77
2022/04/29 03:42:50;;;;;;;4.40;3.88;;;;;;;11.89;51.59;98118.63;6095064;23;20164;-77
2022/04/29 03:45:16;;;;;;;5.93;4.10;;;;;;;11.90;51.63;98114.19;6112734;23;20141;-77
2022/04/29 03:47:43;;;;;;;4.32;3.63;;;;;;;11.86;52.27;98116.47;6097291;23;20627;-77
2022/04/29 03:50:09;;;;;;;5.30;4.60;;;;;;;11.87;52.46;98112.03;6062904;23;20160;-77
2022/04/29 03:52:47;;;;;;;4.30;3.80;;;;;;;11.67;52.88;98108.00;6086153;23;20641;-77
2022/04/29 03:55:14;;;;;;;5.07;4.30;;;;;;;11.80;52.36;98115.56;6149565;23;20237;-77
2022/04/29 03:57:39;;;;;;;5.78;4.28;;;;;;;11.85;52.49;98114.09;6096245;23;20408;-77
2022/04/29 04:00:05;;;;;;;7.32;5.05;;;;;;;11.91;52.31;98108.78;6063086;23;20281;-78
2022/04/29 04:02:31;;;;;;;5.20;4.25;;;;;;;11.92;52.48;98109.56;6087285;23;20380;-78
2022/04/29 04:04:56;;;;;;;5.80;4.68;;;;;;;11.92;52.91;98109.56;6121156;23;20258;-77
2022/04/29 04:07:22;;;;;;;5.18;4.40;;;;;;;11.92;53.25;98114.78;6140527;23;20332;-78
2022/04/29 04:09:47;;;;;;;5.18;3.97;;;;;;;11.86;52.63;98108.66;6095396;23;20603;-78
2022/04/29 04:12:12;;;;;;;4.75;4.10;;;;;;;11.84;52.82;98122.94;6095981;23;20415;-78
2022/04/29 04:14:38;;;;;;;6.05;4.95;;;;;;;11.84;53.40;98121.13;6095832;23;20653;-78
2022/04/29 04:17:04;;;;;;;6.85;4.68;;;;;;;11.80;53.07;98125.22;6112685;23;20371;-78
2022/04/29 04:19:29;;;;;;;7.07;5.15;;;;;;;11.79;52.78;98121.81;6086942;23;20179;-78
2022/04/29 04:21:54;;;;;;;7.40;5.05;;;;;;;11.73;53.42;98127.94;6120949;23;20081;-78
2022/04/29 04:24:20;;;;;;;6.80;5.30;;;;;;;11.70;53.35;98128.38;6120178;23;20250;-78
2022/04/29 04:26:45;;;;;;;6.35;4.90;;;;;;;11.68;53.57;98138.25;6096151;23;20517;-78
2022/04/29 04:29:11;;;;;;;7.53;5.22;;;;;;;11.68;53.72;98135.66;6121360;23;20261;-78
2022/04/29 04:31:37;;;;;;;6.55;5.13;;;;;;;11.70;53.99;98141.44;6097117;23;20118;-78
2022/04/29 04:34:49;;;;;;;7.70;5.60;;;;;;;11.68;54.41;98148.69;6062146;23;20172;-78
2022/04/29 04:36:54;;;;;;;6.13;5.13;;;;;;;11.60;54.56;98144.63;6116230;23;20179;-77
2022/04/29 04:39:20;;;;;;;6.85;5.40;;;;;;;11.68;54.17;98153.13;6097309;23;20152;-78
2022/04/29 04:41:46;;;;;;;7.13;5.78;;;;;;;11.68;54.30;98151.31;6120306;23;20315;-77
2022/04/29 04:44:12;;;;;;;5.53;4.63;;;;;;;11.69;54.28;98145.06;6095182;23;20291;-77
2022/04/29 04:46:38;;;;;;;6.90;5.55;;;;;;;11.73;54.02;98150.63;6120540;23;20163;-77
2022/04/29 04:49:03;;;;;;;6.63;4.93;;;;;;;11.68;54.42;98148.69;6062070;23;20396;-77
2022/04/29 04:51:29;;;;;;;7.13;5.05;;;;;;;11.69;54.70;98152.91;6112696;23;20242;-78
2022/04/29 04:53:54;;;;;;;6.45;5.40;;;;;;;11.67;54.59;98160.16;6118291;23;20168;-78
2022/04/29 04:56:20;;;;;;;7.13;5.80;;;;;;;11.62;54.46;98158.22;6149948;23;20569;-78
2022/04/29 04:58:45;;;;;;;5.97;5.28;;;;;;;11.71;54.81;98160.50;6062579;23;20405;-78
2022/04/29 05:01:11;;;;;;;9.05;5.78;;;;;;;11.67;55.08;98157.56;6093878;23;20184;-77
2022/04/29 05:03:37;;;;;;;7.22;5.60;;;;;;;11.66;55.01;98163.78;6085077;23;20254;-77
2022/04/29 05:06:02;;;;;;;10.20;5.82;;;;;;;11.72;54.76;98162.88;6086245;23;20331;-77
2022/04/29 05:08:28;;;;;;;7.38;5.65;;;;;;;11.76;55.16;98158.00;6093196;23;20745;-77
2022/04/29 05:10:53;;;;;;;7.15;5.47;;;;;;;11.77;55.55;98157.78;6060842;23;20195;-78
2022/04/29 05:13:19;;;;;;;6.70;5.68;;;;;;;11.80;55.01;98159.13;6095918;23;20160;-78
2022/04/29 05:15:44;;;;;;;12.77;6.68;;;;;;;11.75;55.49;98156.41;6083474;23;20688;-78
2022/04/29 05:18:10;;;;;;;8.43;6.32;;;;;;;11.80;55.12;98159.13;6085387;23;20197;-78
2022/04/29 05:20:35;;;;;;;7.82;5.85;;;;;;;11.83;55.25;98163.13;6119024;23;20640;-78
2022/04/29 05:23:00;;;;;;;7.68;6.07;;;;;;;11.87;54.64;98164.22;6093503;23;20315;-78
2022/04/29 05:25:26;;;;;;;9.50;6.40;;;;;;;11.90;54.39;98161.19;6119019;23;20254;-78
2022/04/29 05:27:51;;;;;;;6.97;5.63;;;;;;;11.99;54.66;98173.69;6118719;23;20191;-77
2022/04/29 05:30:17;;;;;;;8.93;6.50;;;;;;;12.05;54.51;98171.97;6085446;23;20583;-78
2022/04/29 05:32:42;;;;;;;7.88;6.03;;;;;;;12.07;54.58;98158.69;6119485;23;20267;-78
2022/04/29 05:35:09;;;;;;;8.70;6.85;;;;;;;12.12;54.43;98167.41;6120319;23;20322;-78
2022/04/29 05:37:36;;;;;;;10.60;7.18;;;;;;;12.13;54.43;98163.78;6086790;23;20609;-78
2022/04/29 05:42:46;;;;;;;7.38;6.18;;;;;;;12.26;54.48;98167.16;6091144;23;20247;-78
2022/04/29 05:45:11;;;;;;;8.25;6.30;;;;;;;12.31;54.72;98169.88;6122611;23;20110;-78
2022/04/29 05:47:37;;;;;;;10.38;7.13;;;;;;;12.34;54.16;98166.81;6087777;23;20206;-78
2022/04/29 05:50:03;;;;;;;8.85;6.53;;;;;;;12.36;54.31;98162.16;6119202;22;20596;-78
2022/04/29 05:52:29;;;;;;;8.95;6.95;;;;;;;12.47;54.40;98163.94;6118638;23;20174;-80
2022/04/29 05:54:54;;;;;;;9.88;6.53;;;;;;;12.53;54.40;98160.41;6121673;23;20263;-80
2022/04/29 05:57:19;;;;;;;12.45;7.32;;;;;;;12.65;54.61;98160.34;6121501;23;20221;-80
2022/04/29 05:59:45;;;;;;;8.82;7.05;;;;;;;12.66;54.40;98159.34;6146769;23;20167;-80
2022/04/29 06:02:10;;;;;;;9.00;5.93;;;;;;;12.92;54.19;98170.25;6062880;23;20245;-80
2022/04/29 06:04:36;;;;;;;8.77;6.30;;;;;;;13.15;54.11;98158.88;6120635;23;20100;-80
2022/04/29 06:07:01;;;;;;;7.30;6.22;;;;;;;13.41;53.18;98164.53;6116079;23;20153;-78
2022/04/29 06:09:26;;;;;;;7.13;6.10;;;;;;;13.53;53.75;98167.88;6119872;23;20182;-78
2022/04/29 06:11:52;;;;;;;8.43;6.72;;;;;;;13.63;53.14;98159.38;6120795;23;20231;-80
2022/04/29 06:14:18;;;;;;;8.77;5.90;;;;;;;13.67;53.20;98163.91;6087477;23;20179;-80
2022/04/29 06:16:44;;;;;;;8.00;5.95;;;;;;;13.76;53.06;98164.28;6121328;23;20620;-81
2022/04/29 06:19:09;;;;;;;7.85;5.90;;;;;;;13.89;52.78;98157.13;6061891;23;20225;-80
2022/04/29 06:21:36;;;;;;;8.45;6.57;;;;;;;14.03;52.93;98158.34;6095115;23;20384;-80
2022/04/29 06:24:01;;;;;;;10.25;6.40;;;;;;;14.06;51.80;98160.50;6096835;23;20235;-78
2022/04/29 06:26:26;;;;;;;14.40;9.27;;;;;;;14.21;51.70;98154.66;6121957;23;20332;-78
2022/04/29 06:28:52;;;;;;;12.25;8.50;;;;;;;14.46;50.59;98156.00;6063132;23;20393;-78
2022/04/29 06:31:17;;;;;;;10.95;7.70;;;;;;;14.75;50.28;98159.22;6062513;23;20222;-78
2022/04/29 06:33:43;;;;;;;11.32;8.73;;;;;;;14.68;49.52;98159.41;6095640;23;20219;-78
2022/04/29 06:36:09;;;;;;;11.55;6.70;;;;;;;14.87;49.29;98156.44;6119312;23;20183;-78
2022/04/29 06:38:34;;;;;;;18.83;12.88;;;;;;;15.05;48.58;98156.09;6095108;23;20225;-78
2022/04/29 06:41:00;;;;;;;18.65;10.82;;;;;;;15.24;48.54;98155.75;6094945;23;20168;-78
2022/04/29 06:43:28;;;;;;;10.85;8.77;;;;;;;15.34;48.42;98156.59;6146365;23;20210;-78
2022/04/29 06:45:53;;;;;;;10.07;7.30;;;;;;;15.37;47.71;98157.94;6088066;23;20509;-78
2022/04/29 06:48:19;;;;;;;8.85;6.35;;;;;;;15.39;48.81;98148.00;6096965;23;20256;-78
2022/04/29 06:50:44;;;;;;;11.18;6.95;;;;;;;15.32;47.98;98157.91;6094366;23;20183;-79
2022/04/29 06:53:09;;;;;;;9.55;6.88;;;;;;;15.43;47.87;98153.53;6094520;23;20254;-78
2022/04/29 06:55:39;;;;;;;8.02;6.13;;;;;;;15.44;47.70;98152.47;6121330;23;20124;-79
2022/04/29 06:58:05;;;;;;;8.27;5.93;;;;;;;15.60;47.69;98156.00;6119696;23;20204;-80
2022/04/29 07:00:30;;;;;;;8.45;6.70;;;;;;;15.87;47.12;98158.56;6061858;23;20650;-78
2022/04/29 07:03:02;;;;;;;7.85;5.93;;;;;;;16.03;46.84;98159.44;6119638;23;20226;-78
2022/04/29 07:05:30;;;;;;;6.97;5.88;;;;;;;16.11;46.07;98161.59;6096081;23;20239;-78
2022/04/29 07:07:55;;;;;;;8.85;5.18;;;;;;;16.13;46.40;98156.84;6116339;23;20323;-79
2022/04/29 07:10:21;;;;;;;7.10;5.32;;;;;;;16.22;46.25;98165.81;6086218;23;20330;-78
2022/04/29 07:12:46;;;;;;;7.28;5.40;;;;;;;16.03;46.65;98156.81;6120215;23;20148;-78
2022/04/29 07:15:15;;;;;;;6.85;4.88;;;;;;;16.23;46.32;98162.16;6121279;23;20187;-78
2022/04/29 07:17:42;;;;;;;6.32;5.40;;;;;;;16.17;45.91;98163.16;6083028;23;20187;-78
2022/04/29 07:20:08;;;;;;;5.95;4.88;;;;;;;16.28;46.00;98159.56;6096264;23;20255;-79
2022/04/29 07:22:35;;;;;;;9.88;6.05;;;;;;;16.35;45.86;98158.50;6123507;23;20175;-78
2022/04/29 07:25:01;;;;;;;8.77;6.30;;;;;;;16.51;46.15;98152.25;6096861;23;20192;-78
2022/04/29 07:27:28;;;;;;;11.38;5.57;;;;;;;16.60;45.72;98149.91;6119699;23;20639;-78
2022/04/29 07:29:54;;;;;;;8.68;5.18;;;;;;;16.52;45.61;98145.97;6100797;23;20715;-78
2022/04/29 07:32:20;;;;;;;6.40;4.78;;;;;;;16.67;45.67;98151.25;6124534;23;20195;-78
2022/04/29 07:42:59;;;;;;;6.70;4.57;;;;;;;17.17;45.10;98142.91;6163136;23;20027;-78
2022/04/29 07:45:26;;;;;;;5.43;4.93;;;;;;;17.26;44.94;98148.47;6159662;23;20007;-78
2022/04/29 07:47:53;;;;;;;5.07;4.57;;;;;;;17.45;44.86;98148.72;6160792;23;20031;-78
2022/04/29 07:50:22;;;;;;;5.55;4.35;;;;;;;17.59;44.77;98152.38;6108494;23;20011;-78
2022/04/29 07:52:48;;;;;;;5.38;4.00;;;;;;;17.90;43.52;98149.72;6111463;23;20012;-78
2022/04/29 07:55:17;;;;;;;5.30;4.38;;;;;;;17.97;43.31;98147.56;6133645;23;20092;-78
2022/04/29 07:57:46;;;;;;;5.55;4.75;;;;;;;18.13;43.17;98151.75;6114070;23;20007;-78
2022/04/29 08:00:15;;;;;;;4.50;4.05;;;;;;;18.03;43.37;98153.66;6077648;23;20008;-78
2022/04/29 08:02:43;;;;;;;4.00;3.60;;;;;;;18.12;42.35;98152.81;6112060;23;20000;-79
2022/04/29 08:05:09;;;;;;;6.45;4.28;;;;;;;18.27;43.00;98153.81;6077510;23;20778;-78
2022/04/29 08:07:38;;;;;;;5.72;3.63;;;;;;;18.44;42.02;98153.44;6134131;23;20000;-78
2022/04/29 08:10:06;;;;;;;4.43;3.95;;;;;;;18.53;41.91;98149.22;6113242;23;20004;-78
2022/04/29 08:12:34;;;;;;;4.72;4.10;;;;;;;18.49;41.96;98151.59;6134333;23;20024;-77
2022/04/29 08:15:01;;;;;;;4.18;3.63;;;;;;;18.66;42.37;98147.81;6109951;23;20072;-78
2022/04/29 08:17:26;;;;;;;4.43;4.03;;;;;;;18.48;41.09;98163.19;6110219;23;20666;-78
2022/04/29 08:19:52;;;;;;;3.92;3.53;;;;;;;18.58;40.78;98156.31;6110110;23;20075;-77
2022/04/29 08:22:20;;;;;;;4.40;3.85;;;;;;;18.80;41.09;98156.72;6110841;23;20012;-78
2022/04/29 08:24:46;;;;;;;5.28;3.92;;;;;;;18.88;40.13;98153.53;6135870;23;20630;-78
2022/04/29 08:27:12;;;;;;;4.25;3.85;;;;;;;19.16;39.70;98158.31;6135059;23;20030;-79
2022/04/29 08:29:40;;;;;;;5.15;4.03;;;;;;;19.28;39.80;98145.56;6101336;23;20016;-78
2022/04/29 08:32:06;;;;;;;4.93;3.90;;;;;;;19.34;39.90;98154.22;6081273;23;20815;-79
2022/04/29 08:34:35;;;;;;;4.70;3.30;;;;;;;19.54;39.17;98156.69;6079176;23;20008;-78
2022/04/29 08:37:04;;;;;;;5.78;4.00;;;;;;;19.72;38.85;98141.97;6136939;23;20667;-78
2022/04/29 08:39:30;;;;;;;4.85;3.42;;;;;;;19.76;40.08;98144.91;6138235;23;20004;-78
2022/04/29 08:42:02;;;;;;;5.10;3.60;;;;;;;19.91;38.80;98142.09;6139778;23;20000;-78
2022/04/29 08:44:31;;;;;;;3.97;3.55;;;;;;;19.78;38.55;98148.03;6140243;23;20611;-78
2022/04/29 08:46:58;;;;;;;5.05;3.55;;;;;;;19.99;38.72;98146.75;6085116;23;20655;-79
2022/04/29 08:49:25;;;;;;;4.95;3.72;;;;;;;20.24;38.18;98144.88;6118735;23;20010;-79
2022/04/29 08:51:51;;;;;;;4.07;3.78;;;;;;;20.35;38.20;98146.31;6135114;23;20023;-79
2022/04/29 08:59:58;;;;;;;4.68;3.75;;;;;;;20.21;37.76;98138.28;6111987;23;20876;-79
2022/04/29 09:02:25;;;;;;;4.00;3.60;;;;;;;20.65;37.53;98136.44;6109380;23;20016;-79
2022/04/29 09:04:53;;;;;;;6.55;3.60;;;;;;;20.31;36.39;98134.75;6100147;23;20030;-79
2022/04/29 09:07:19;;;;;;;3.33;3.03;;;;;;;20.67;37.11;98125.56;6123773;23;20035;-78
2022/04/29 09:09:46;;;;;;;4.97;3.33;;;;;;;20.85;35.88;98131.91;6127271;23;20047;-80
2022/04/29 09:12:16;;;;;;;5.57;3.53;;;;;;;20.97;35.82;98124.31;6222130;23;20016;-80
2022/04/29 09:14:42;;;;;;;3.92;3.40;;;;;;;21.26;34.51;98125.97;6179542;23;20947;-77
2022/04/29 09:17:25;;;;;;;4.15;3.65;;;;;;;20.98;35.19;98128.53;6069871;23;20004;-78
2022/04/29 09:19:50;;;;;;;4.82;4.38;;;;;;;21.09;34.78;98114.03;6103630;23;20075;-78
2022/04/29 09:22:16;;;;;;;5.25;3.55;;;;;;;20.89;32.46;98125.00;6107881;23;20085;-78
2022/04/29 09:24:41;;;;;;;4.15;3.42;;;;;;;20.89;33.90;98131.06;6132030;23;20033;-77
2022/04/29 09:27:07;;;;;;;4.93;4.05;;;;;;;21.17;33.53;98120.56;6126822;23;20343;-78
2022/04/29 09:29:42;;;;;;;4.18;3.55;;;;;;;21.56;32.80;98123.88;6127642;23;20111;-78
2022/04/29 09:32:08;;;;;;;;;;;;;;;21.53;33.79;98124.50;6102571;23;20008;-78
2022/04/29 09:34:47;;;;;;;3.95;3.15;;;;;;;21.92;33.70;98118.72;6152634;23;20643;-78
2022/04/29 09:37:14;;;;;;;4.22;3.40;;;;;;;22.39;33.10;98118.59;6130273;23;20007;-78
2022/04/29 09:39:50;;;;;;;4.93;3.78;;;;;;;22.53;34.08;98119.31;6102440;23;20075;-79
2022/04/29 09:42:16;;;;;;;3.75;3.45;;;;;;;21.79;29.36;98107.03;6132211;23;20004;-82
2022/04/29 09:44:42;;;;;;;4.05;3.03;;;;;;;21.98;29.33;98120.19;6108475;23;20561;-79
2022/04/29 09:47:12;;;;;;;4.45;3.03;;;;;;;22.00;26.91;98117.22;6106055;23;20807;-82
2022/04/29 09:49:38;;;;;;;3.67;2.58;;;;;;;22.21;26.90;98107.78;6103205;23;20845;-80
2022/04/29 09:52:05;;;;;;;3.75;2.47;;;;;;;22.40;27.44;98098.94;6123316;23;20042;-80
2022/04/29 09:54:35;;;;;;;2.85;2.35;;;;;;;22.96;27.59;98088.88;6103422;23;20008;-78
2022/04/29 09:57:14;;;;;;;2.97;2.42;;;;;;;23.30;29.11;98098.94;6106252;23;20067;-80
2022/04/29 09:59:42;;;;;;;3.00;2.70;;;;;;;22.36;26.08;98097.94;6160410;23;20007;-81
2022/04/29 10:02:09;;;;;;;2.60;2.40;;;;;;;22.67;27.02;98105.22;6134084;23;20000;-80
2022/04/29 10:04:37;;;;;;;3.22;2.25;;;;;;;23.02;26.27;98098.31;6109013;23;20769;-78
2022/04/29 10:07:08;;;;;;;2.92;2.05;;;;;;;23.32;25.83;98107.44;6129096;23;20359;-80
2022/04/29 10:09:36;;;;;;;3.08;2.75;;;;;;;23.57;25.56;98099.88;6120613;23;20476;-79
2022/04/29 10:12:04;;;;;;;2.58;2.38;;;;;;;23.41;25.72;98088.84;6097670;23;20009;-79
2022/04/29 10:14:31;;;;;;;5.07;2.63;;;;;;;23.24;25.22;98094.09;6103554;23;20215;-79
2022/04/29 10:22:33;;;;;;;3.25;2.40;;;;;;;22.68;27.73;98088.22;6152863;23;20065;-79
2022/04/29 10:25:00;;;;;;;6.03;2.72;;;;;;;22.17;25.42;98074.19;6130165;23;20004;-78
2022/04/29 10:27:26;;;;;;;2.38;2.15;;;;;;;22.12;25.33;98077.72;6099093;23;20007;-78
2022/04/29 10:29:52;;;;;;;2.75;2.42;;;;;;;21.97;26.69;98080.69;6129110;23;20004;-80
2022/04/29 10:32:18;;;;;;;2.40;2.20;;;;;;;22.07;27.11;98083.13;6102200;23;20000;-79
2022/04/29 10:34:43;;;;;;;2.80;2.47;;;;;;;22.13;26.20;98086.50;6101676;23;20551;-78
2022/04/29 10:37:13;;;;;;;2.30;2.10;;;;;;;22.51;28.15;98083.56;6071506;23;20071;-79
2022/04/29 10:39:40;;;;;;;2.55;2.30;;;;;;;23.16;25.08;98082.31;6101568;23;20000;-79
2022/04/29 10:42:08;;;;;;;2.88;2.58;;;;;;;23.19;25.66;98079.06;6126250;23;20602;-78
2022/04/29 10:44:34;;;;;;;2.28;2.03;;;;;;;23.45;26.23;98075.75;6101825;23;20157;-79
2022/04/29 10:47:38;;;;;;;2.80;2.33;;;;;;;23.34;27.33;98078.66;6126633;23;20004;-80
2022/04/29 10:50:31;;;;;;;2.30;2.10;;;;;;;23.79;26.58;98077.72;6130054;23;20011;-80
2022/04/29 10:53:04;;;;;;;2.95;2.65;;;;;;;23.82;25.01;98076.34;6130505;23;20074;-79
2022/04/29 10:55:31;;;;;;;2.80;2.30;;;;;;;24.23;24.59;98067.19;6096370;23;20012;-79
2022/04/29 10:58:00;;;;;;;3.17;2.67;;;;;;;23.69;24.44;98062.84;6109722;23;20083;-80
2022/04/29 11:00:27;;;;;;;2.97;2.42;;;;;;;23.89;24.42;98074.03;6104384;23;20345;-80
2022/04/29 11:02:53;;;;;;;2.97;2.67;;;;;;;23.99;24.34;98060.44;6109600;23;20551;-79
2022/04/29 11:05:37;;;;;;;2.38;2.17;;;;;;;23.59;25.12;98057.81;6126441;23;19996;-78
2022/04/29 11:08:10;;;;;;;2.45;2.25;;;;;;;23.69;24.93;98059.41;6092664;23;20674;-81
2022/04/29 11:10:53;;;;;;;2.50;2.30;;;;;;;23.45;25.13;98044.63;6070754;23;20676;-79
2022/04/29 11:13:25;;;;;;;2.25;2.00;;;;;;;23.49;25.50;98055.41;6097691;23;20004;-82
2022/04/29 11:15:51;;;;;;;3.15;2.13;;;;;;;22.99;24.24;98043.91;6109998;23;20011;-79
2022/04/29 11:18:23;;;;;;;3.22;2.50;;;;;;;22.98;25.34;98057.50;6074021;23;20000;-79
2022/04/29 11:20:55;;;;;;;2.97;2.67;;;;;;;22.97;24.21;98043.44;6102376;23;20692;-78
2022/04/29 11:26:14;;;;;;;3.13;2.45;;;;;;;22.19;25.63;98033.03;6136274;23;20087;-79
2022/04/29 11:28:40;;;;;;;2.38;2.15;;;;;;;22.52;24.96;98030.19;6128304;23;20015;-79
2022/04/29 11:31:08;;;;;;;2.40;2.20;;;;;;;22.54;25.87;98029.91;6130576;23;20544;-79
2022/04/29 11:33:34;;;;;;;2.50;2.30;;;;;;;22.81;26.30;98028.97;6129445;23;20005;-80
2022/04/29 11:36:06;;;;;;;2.83;2.63;;;;;;;22.87;25.29;98038.38;6097750;23;20030;-79
2022/04/29 11:38:38;;;;;;;2.90;2.17;;;;;;;22.90;24.80;98024.50;6154449;23;20023;-80
2022/04/29 11:41:03;;;;;;;2.85;2.42;;;;;;;23.38;23.46;98025.69;6073199;23;20016;-78
2022/04/29 11:43:29;;;;;;;2.83;2.30;;;;;;;23.16;24.35;98023.88;6128378;23;20079;-81
2022/04/29 11:46:06;;;;;;;2.38;2.17;;;;;;;23.34;25.00;98014.88;6127468;23;20135;-80
2022/04/29 11:48:33;;;;;;;3.40;2.83;;;;;;;22.92;24.36;98016.22;6076167;23;20219;-81
2022/04/29 11:50:59;;;;;;;4.88;2.30;;;;;;;23.34;26.38;98014.13;6126021;23;20073;-78
2022/04/29 11:53:26;;;;;;;2.47;2.28;;;;;;;23.27;24.64;98008.44;6097538;23;20070;-78
2022/04/29 11:55:52;;;;;;;3.33;2.15;;;;;;;23.62;25.40;98014.66;6096946;23;20008;-80
2022/04/29 11:58:17;;;;;;;2.15;1.90;;;;;;;23.72;24.84;98009.03;6073404;23;20789;-78